createdAt,value
2024-02-20T00:00:20.320Z,100.00
2024-02-20T00:02:49.522Z,100.00
2024-02-20T00:05:17.518Z,100.00
2024-02-20T00:07:45.513Z,100.00
2024-02-20T00:10:13.543Z,100.00
2024-02-20T00:12:43.619Z,100.00
2024-02-20T00:15:11.792Z,100.00
2024-02-20T00:17:39.815Z,100.00
2024-02-20T00:20:10.437Z,100.00
2024-02-20T00:22:38.395Z,100.00
2024-02-20T00:25:07.147Z,100.00
2024-02-20T00:27:36.349Z,100.00
2024-02-20T00:30:05.566Z,100.00
2024-02-20T00:32:33.436Z,100.00
2024-02-20T00:35:01.670Z,100.00
2024-02-20T00:37:31.411Z,100.00
2024-02-20T00:39:59.424Z,100.00
2024-02-20T00:42:27.843Z,100.00
2024-02-20T00:44:55.884Z,100.00
2024-02-20T00:47:25.555Z,100.00
2024-02-20T00:49:54.688Z,100.00
2024-02-20T00:52:22.668Z,100.00
2024-02-20T00:54:51.960Z,100.00
2024-02-20T00:57:19.846Z,100.00
2024-02-20T00:59:47.720Z,100.00
2024-02-20T01:02:15.659Z,100.00
2024-02-20T01:04:44.700Z,100.00
2024-02-20T01:07:12.727Z,100.00
2024-02-20T01:09:40.748Z,100.00
2024-02-20T01:12:10.325Z,100.00
2024-02-20T01:14:38.267Z,100.00
2024-02-20T01:17:06.496Z,100.00
2024-02-20T01:19:34.987Z,100.00
2024-02-20T01:22:02.937Z,100.00
2024-02-20T01:24:30.807Z,100.00
2024-02-20T01:26:58.636Z,100.00
2024-02-20T01:29:27.850Z,100.00
2024-02-20T01:31:55.684Z,100.00
2024-02-20T01:34:24.201Z,100.00
2024-02-20T01:36:54.069Z,100.00
2024-02-20T01:39:22.096Z,100.00
2024-02-20T01:41:50.017Z,100.00
2024-02-20T01:44:18.751Z,100.00
2024-02-20T01:46:48.484Z,100.00
2024-02-20T01:49:17.779Z,100.00
2024-02-20T01:51:46.129Z,100.00
2024-02-20T01:54:14.005Z,100.00
2024-02-20T01:56:42.776Z,100.00
2024-02-20T01:59:10.660Z,100.00
2024-02-20T02:01:38.719Z,100.00
2024-02-20T02:04:08.052Z,100.00
2024-02-20T02:06:39.961Z,100.00
2024-02-20T02:09:07.989Z,100.00
2024-02-20T02:11:40.623Z,100.00
2024-02-20T02:14:09.192Z,100.00
2024-02-20T02:16:37.234Z,100.00
2024-02-20T02:19:05.215Z,100.00
2024-02-20T02:21:35.073Z,100.00
2024-02-20T02:24:02.955Z,100.00
2024-02-20T02:26:32.143Z,100.00
2024-02-20T02:28:59.989Z,100.00
2024-02-20T02:31:28.150Z,100.00
2024-02-20T02:33:57.119Z,100.00
2024-02-20T02:36:26.136Z,100.00
2024-02-20T02:38:54.624Z,100.00
2024-02-20T02:41:24.060Z,100.00
2024-02-20T02:43:53.324Z,100.00
2024-02-20T02:46:21.310Z,100.00
2024-02-20T02:48:50.361Z,100.00
2024-02-20T02:51:18.340Z,100.00
2024-02-20T02:53:46.178Z,100.00
2024-02-20T02:56:15.310Z,100.00
2024-02-20T02:58:43.267Z,100.00
2024-02-20T03:01:14.186Z,100.00
2024-02-20T03:03:42.578Z,100.00
2024-02-20T03:06:11.404Z,100.00
2024-02-20T03:08:39.662Z,100.00
2024-02-20T03:11:08.364Z,100.00
2024-02-20T03:13:36.889Z,100.00
2024-02-20T03:16:05.593Z,100.00
2024-02-20T03:18:36.862Z,100.00
2024-02-20T03:21:05.750Z,100.00
2024-02-20T03:23:34.959Z,100.00
2024-02-20T03:26:04.629Z,100.00
2024-02-20T03:28:32.612Z,100.00
2024-02-20T03:31:01.971Z,100.00
2024-02-20T03:33:31.868Z,100.00
2024-02-20T03:36:01.306Z,100.00
2024-02-20T03:38:29.777Z,100.00
2024-02-20T03:40:57.879Z,100.00
2024-02-20T03:43:25.859Z,100.00
2024-02-20T03:45:53.782Z,100.00
2024-02-20T03:48:21.824Z,100.00
2024-02-20T03:50:50.060Z,100.00
2024-02-20T03:53:19.425Z,100.00
2024-02-20T03:55:47.300Z,100.00
2024-02-20T03:58:15.224Z,100.00
2024-02-20T04:00:43.097Z,100.00
2024-02-20T04:03:11.027Z,100.00
2024-02-20T04:05:39.082Z,100.00
2024-02-20T04:08:07.996Z,100.00
2024-02-20T04:10:37.233Z,100.00
2024-02-20T04:13:05.366Z,100.00
2024-02-20T04:15:33.269Z,100.00
2024-02-20T04:18:01.484Z,100.00
2024-02-20T04:20:29.407Z,100.00
2024-02-20T04:22:57.283Z,100.00
2024-02-20T04:25:25.632Z,100.00
2024-02-20T04:27:54.960Z,100.00
2024-02-20T04:30:22.831Z,100.00
2024-02-20T04:32:50.682Z,100.00
2024-02-20T04:35:18.563Z,100.00
2024-02-20T04:37:46.562Z,100.00
2024-02-20T04:40:15.155Z,100.00
2024-02-20T04:42:43.017Z,100.00
2024-02-20T04:45:12.824Z,100.00
2024-02-20T04:47:40.719Z,100.00
2024-02-20T04:50:10.013Z,100.00
2024-02-20T04:52:37.969Z,100.00
2024-02-20T04:55:06.496Z,100.00
2024-02-20T04:57:34.429Z,100.00
2024-02-20T05:00:02.537Z,100.00
2024-02-20T05:02:34.701Z,100.00
2024-02-20T05:05:02.611Z,100.00
2024-02-20T05:07:30.806Z,100.00
2024-02-20T05:09:59.163Z,100.00
2024-02-20T05:12:27.016Z,100.00
2024-02-20T05:14:54.873Z,100.00
2024-02-20T05:17:22.741Z,100.00
2024-02-20T05:19:52.000Z,100.00
2024-02-20T05:22:20.734Z,100.00
2024-02-20T05:24:48.769Z,100.00
2024-02-20T05:27:16.574Z,100.00
2024-02-20T05:29:44.381Z,100.00
2024-02-20T05:32:12.205Z,100.00
2024-02-20T05:34:41.574Z,100.00
2024-02-20T05:37:10.966Z,100.00
2024-02-20T05:39:38.912Z,100.00
2024-02-20T05:42:08.376Z,100.00
2024-02-20T05:44:36.285Z,100.00
2024-02-20T05:47:04.314Z,100.00
2024-02-20T05:49:34.134Z,100.00
2024-02-20T05:52:02.144Z,100.00
2024-02-20T05:54:31.326Z,100.00
2024-02-20T05:56:59.314Z,100.00
2024-02-20T05:59:27.170Z,100.00
2024-02-20T06:01:55.051Z,100.00
2024-02-20T06:04:23.259Z,100.00
2024-02-20T06:06:51.240Z,100.00
2024-02-20T06:09:19.152Z,100.00
2024-02-20T06:11:48.881Z,100.00
2024-02-20T06:14:17.276Z,100.00
2024-02-20T06:16:45.177Z,100.00
2024-02-20T06:19:13.145Z,100.00
2024-02-20T06:21:41.722Z,100.00
2024-02-20T06:24:09.636Z,100.00
2024-02-20T06:26:37.599Z,100.00
2024-02-20T06:29:07.952Z,100.00
2024-02-20T06:31:37.340Z,100.00
2024-02-20T06:34:07.724Z,100.00
2024-02-20T06:36:35.713Z,100.00
2024-02-20T06:39:04.073Z,100.00
2024-02-20T06:41:31.922Z,100.00
2024-02-20T06:43:59.774Z,100.00
2024-02-20T06:46:29.054Z,100.00
2024-02-20T06:48:57.026Z,100.00
2024-02-20T06:51:25.790Z,100.00
2024-02-20T06:53:55.514Z,100.00
2024-02-20T06:56:23.429Z,100.00
2024-02-20T06:58:51.795Z,100.00
2024-02-20T07:01:19.891Z,100.00
2024-02-20T07:03:50.219Z,100.00
2024-02-20T07:06:18.432Z,100.00
2024-02-20T07:08:46.415Z,100.00
2024-02-20T07:11:14.522Z,100.00
2024-02-20T07:13:42.537Z,100.00
2024-02-20T07:16:10.502Z,100.00
2024-02-20T07:18:38.426Z,100.00
2024-02-20T07:21:07.654Z,100.00
2024-02-20T07:23:35.492Z,100.00
2024-02-20T07:26:03.323Z,100.00
2024-02-20T07:28:31.452Z,100.00
2024-02-20T07:30:59.327Z,100.00
2024-02-20T07:33:35.128Z,100.00
2024-02-20T07:36:07.661Z,100.00
2024-02-20T07:38:35.588Z,100.00
2024-02-20T07:41:04.602Z,100.00
2024-02-20T07:43:35.835Z,100.00
2024-02-20T07:46:05.972Z,100.00
2024-02-20T07:48:34.033Z,100.00
2024-02-20T07:51:02.071Z,100.00
2024-02-20T07:53:31.368Z,100.00
2024-02-20T07:56:01.284Z,100.00
2024-02-20T07:58:37.164Z,100.00
2024-02-20T08:01:10.995Z,100.00
2024-02-20T08:03:39.013Z,100.00
2024-02-20T08:06:07.288Z,100.00
2024-02-20T08:08:36.567Z,100.00
2024-02-20T08:11:04.700Z,100.00
2024-02-20T08:13:32.725Z,100.00
2024-02-20T08:16:00.785Z,100.00
2024-02-20T08:18:28.709Z,100.00
2024-02-20T08:20:56.575Z,100.00
2024-02-20T08:23:24.392Z,100.00
2024-02-20T08:25:53.647Z,100.00
2024-02-20T08:28:21.587Z,100.00
2024-02-20T08:30:49.438Z,100.00
2024-02-20T08:33:16.365Z,100.00
2024-02-20T08:35:44.516Z,100.00
2024-02-20T08:38:12.422Z,100.00
2024-02-20T08:40:40.363Z,100.00
2024-02-20T08:43:09.706Z,100.00
2024-02-20T08:45:37.529Z,100.00
2024-02-20T08:48:06.123Z,100.00
2024-02-20T08:50:34.003Z,100.00
2024-02-20T08:53:06.715Z,100.00
2024-02-20T08:55:34.661Z,100.00
2024-02-20T08:58:02.646Z,100.00
2024-02-20T09:00:32.406Z,100.00
2024-02-20T09:03:00.457Z,100.00
2024-02-20T09:05:28.725Z,100.00
2024-02-20T09:07:56.972Z,100.00
2024-02-20T09:10:26.015Z,100.00
2024-02-20T09:12:53.962Z,100.00
2024-02-20T09:15:21.901Z,100.00
2024-02-20T09:17:51.424Z,100.00
2024-02-20T09:20:19.463Z,100.00
2024-02-20T09:22:49.317Z,100.00
2024-02-20T09:25:17.326Z,100.00
2024-02-20T09:27:45.345Z,100.00
2024-02-20T09:30:13.525Z,100.00
2024-02-20T09:32:44.380Z,100.00
2024-02-20T09:35:15.656Z,100.00
2024-02-20T09:37:44.182Z,100.00
2024-02-20T09:40:17.934Z,100.00
2024-02-20T09:42:49.037Z,100.00
2024-02-20T09:45:19.196Z,100.00
2024-02-20T09:47:51.656Z,100.00
2024-02-20T09:50:24.675Z,100.00
2024-02-20T09:52:54.998Z,100.00
2024-02-20T09:55:24.910Z,100.00
2024-02-20T09:57:53.772Z,100.00
2024-02-20T10:00:22.414Z,100.00
2024-02-20T10:02:53.363Z,100.00
2024-02-20T10:05:21.512Z,100.00
2024-02-20T10:07:59.986Z,100.00
2024-02-20T10:10:28.701Z,100.00
2024-02-20T10:13:00.478Z,100.00
2024-02-20T10:15:28.478Z,100.00
2024-02-20T10:18:01.081Z,100.00
2024-02-20T10:20:30.116Z,100.00
2024-02-20T10:23:10.124Z,100.00
2024-02-20T10:25:38.755Z,100.00
2024-02-20T10:28:08.004Z,100.00
2024-02-20T10:30:36.338Z,100.00
2024-02-20T10:33:04.449Z,100.00
2024-02-20T10:35:32.532Z,100.00
2024-02-20T10:38:04.583Z,100.00
2024-02-20T10:40:34.389Z,100.00
2024-02-20T10:43:02.962Z,100.00
2024-02-20T10:45:31.087Z,100.00
2024-02-20T10:48:00.835Z,100.00
2024-02-20T10:50:33.030Z,100.00
2024-02-20T10:53:02.901Z,100.00
2024-02-20T10:55:35.293Z,100.00
2024-02-20T10:58:06.487Z,100.00
2024-02-20T11:00:37.767Z,100.00
2024-02-20T11:03:08.440Z,100.00
2024-02-20T11:05:36.498Z,100.00
2024-02-20T11:08:10.637Z,100.00
2024-02-20T11:10:42.037Z,100.00
2024-02-20T11:13:14.766Z,100.00
2024-02-20T11:15:42.920Z,100.00
2024-02-20T11:18:18.717Z,100.00
2024-02-20T11:20:47.255Z,100.00
2024-02-20T11:23:15.325Z,100.00
2024-02-20T11:25:44.933Z,100.00
2024-02-20T11:28:15.129Z,100.00
2024-02-20T11:30:44.019Z,100.00
2024-02-20T11:33:17.671Z,100.00
2024-02-20T11:35:47.918Z,100.00
2024-02-20T11:38:21.886Z,100.00
2024-02-20T11:40:51.304Z,100.00
2024-02-20T11:43:20.636Z,100.00
2024-02-20T11:45:48.691Z,100.00
2024-02-20T11:48:18.556Z,100.00
2024-02-20T11:50:48.015Z,100.00
2024-02-20T11:53:17.228Z,100.00
2024-02-20T11:55:46.590Z,100.00
2024-02-20T11:58:22.687Z,100.00
2024-02-20T12:00:56.744Z,100.00
2024-02-20T12:03:31.901Z,100.00
2024-02-20T12:06:03.804Z,100.00
2024-02-20T12:08:40.929Z,100.00
2024-02-20T12:11:09.776Z,100.00
2024-02-20T12:13:39.688Z,100.00
2024-02-20T12:16:18.927Z,100.00
2024-02-20T12:18:48.632Z,100.00
2024-02-20T12:21:16.520Z,100.00
2024-02-20T12:23:53.968Z,100.00
2024-02-20T12:26:22.287Z,100.00
2024-02-20T12:28:52.086Z,100.00
2024-02-20T12:31:24.609Z,100.00
2024-02-20T12:33:53.510Z,100.00
2024-02-20T12:36:24.576Z,100.00
2024-02-20T12:38:53.208Z,100.00
2024-02-20T12:41:21.037Z,100.00
2024-02-20T12:43:49.029Z,100.00
2024-02-20T12:46:18.359Z,100.00
2024-02-20T12:48:54.612Z,100.00
2024-02-20T12:51:23.488Z,100.00
2024-02-20T12:53:51.348Z,100.00
2024-02-20T12:56:19.277Z,100.00
2024-02-20T12:58:47.968Z,100.00
2024-02-20T13:01:16.683Z,100.00
2024-02-20T13:03:47.556Z,100.00
2024-02-20T13:06:15.565Z,100.00
2024-02-20T13:08:43.543Z,100.00
2024-02-20T13:11:11.697Z,100.00
2024-02-20T13:13:39.580Z,100.00
2024-02-20T13:16:08.028Z,100.00
2024-02-20T13:18:35.870Z,100.00
2024-02-20T13:21:06.409Z,100.00
2024-02-20T13:23:34.357Z,100.00
2024-02-20T13:26:02.294Z,100.00
2024-02-20T13:28:30.444Z,96.64
2024-02-20T13:30:58.354Z,97.07
2024-02-20T13:33:26.374Z,97.12
2024-02-20T13:35:54.294Z,97.38
2024-02-20T13:38:23.726Z,93.96
2024-02-20T13:40:52.813Z,92.40
2024-02-20T13:43:20.884Z,92.26
2024-02-20T13:45:51.513Z,92.28
2024-02-20T13:48:20.107Z,91.23
2024-02-20T13:50:49.312Z,91.46
2024-02-20T13:53:18.384Z,90.90
2024-02-20T13:55:50.430Z,92.38
2024-02-20T13:58:19.425Z,92.88
2024-02-20T14:00:47.822Z,95.48
2024-02-20T14:03:18.228Z,94.61
2024-02-20T14:05:46.371Z,95.28
2024-02-20T14:08:14.900Z,95.97
2024-02-20T14:10:42.806Z,96.05
2024-02-20T14:13:12.082Z,96.86
2024-02-20T14:15:39.943Z,98.03
2024-02-20T14:18:08.124Z,98.50
2024-02-20T14:20:36.746Z,98.78
2024-02-20T14:23:05.422Z,98.71
2024-02-20T14:25:33.422Z,99.64
2024-02-20T14:28:02.144Z,100.00
2024-02-20T14:30:33.531Z,100.00
2024-02-20T14:33:06.702Z,100.00
2024-02-20T14:35:34.580Z,100.00
2024-02-20T14:38:02.437Z,100.00
2024-02-20T14:40:30.382Z,100.00
2024-02-20T14:42:58.306Z,100.00
2024-02-20T14:45:26.136Z,100.00
2024-02-20T14:47:55.372Z,100.00
2024-02-20T14:50:24.265Z,100.00
2024-02-20T14:52:52.597Z,100.00
2024-02-20T14:55:20.557Z,100.00
2024-02-20T14:57:50.444Z,100.00
2024-02-20T15:00:19.488Z,100.00
2024-02-20T15:02:48.136Z,100.00
2024-02-20T15:05:17.683Z,100.00
2024-02-20T15:07:47.427Z,100.00
2024-02-20T15:10:16.038Z,100.00
2024-02-20T15:12:45.673Z,100.00
2024-02-20T15:15:17.742Z,100.00
2024-02-20T15:17:46.850Z,100.00
2024-02-20T15:20:15.141Z,100.00
2024-02-20T15:22:44.515Z,100.00
2024-02-20T15:25:16.982Z,100.00
2024-02-20T15:27:47.926Z,100.00
2024-02-20T15:30:16.922Z,100.00
2024-02-20T15:32:46.535Z,100.00
2024-02-20T15:35:15.010Z,100.00
2024-02-20T15:37:46.366Z,100.00
2024-02-20T15:40:15.092Z,100.00
2024-02-20T15:42:45.387Z,100.00
2024-02-20T15:45:13.973Z,100.00
2024-02-20T15:47:45.649Z,100.00
2024-02-20T15:50:19.697Z,100.00
2024-02-20T15:52:52.269Z,100.00
2024-02-20T15:55:22.518Z,100.00
2024-02-20T15:57:51.693Z,100.00
2024-02-20T16:00:21.012Z,100.00
2024-02-20T16:02:48.922Z,100.00
2024-02-20T16:05:16.970Z,100.00
2024-02-20T16:07:44.930Z,100.00
2024-02-20T16:10:14.215Z,100.00
2024-02-20T16:12:42.061Z,100.00
2024-02-20T16:15:11.885Z,100.00
2024-02-20T16:17:41.347Z,100.00
2024-02-20T16:20:10.370Z,100.00
2024-02-20T16:22:38.514Z,100.00
2024-02-20T16:25:08.722Z,100.00
2024-02-20T16:27:38.692Z,100.00
2024-02-20T16:30:07.700Z,100.00
2024-02-20T16:32:35.740Z,100.00
2024-02-20T16:35:04.270Z,100.00
2024-02-20T16:37:32.572Z,100.00
2024-02-20T16:40:00.605Z,100.00
2024-02-20T16:42:28.478Z,100.00
2024-02-20T16:44:57.676Z,100.00
2024-02-20T16:47:25.579Z,100.00
2024-02-20T16:49:53.837Z,100.00
2024-02-20T16:52:21.764Z,100.00
2024-02-20T16:54:49.613Z,100.00
2024-02-20T16:57:17.511Z,100.00
2024-02-20T16:59:45.373Z,100.00
2024-02-20T17:02:14.782Z,100.00
2024-02-20T17:04:45.577Z,100.00
2024-02-20T17:07:17.379Z,100.00
2024-02-20T17:09:46.793Z,100.00
2024-02-20T17:12:15.817Z,100.00
2024-02-20T17:14:43.802Z,100.00
2024-02-20T17:17:11.664Z,100.00
2024-02-20T17:19:41.245Z,100.00
2024-02-20T17:22:09.386Z,100.00
2024-02-20T17:24:37.266Z,100.00
2024-02-20T17:27:06.540Z,100.00
2024-02-20T17:29:35.654Z,100.00
2024-02-20T17:32:03.661Z,100.00
2024-02-20T17:34:32.528Z,100.00
2024-02-20T17:37:03.586Z,100.00
2024-02-20T17:39:31.721Z,100.00
2024-02-20T17:41:59.631Z,100.00
2024-02-20T17:44:27.579Z,100.00
2024-02-20T17:46:55.599Z,100.00
2024-02-20T17:49:23.681Z,100.00
2024-02-20T17:51:52.122Z,100.00
2024-02-20T17:54:21.844Z,100.00
2024-02-20T17:56:49.689Z,100.00
2024-02-20T17:59:17.559Z,100.00
2024-02-20T18:01:45.959Z,100.00
2024-02-20T18:04:13.909Z,100.00
2024-02-20T18:06:41.888Z,100.00
2024-02-20T18:09:09.794Z,100.00
2024-02-20T18:11:39.039Z,100.00
2024-02-20T18:14:07.028Z,100.00
2024-02-20T18:16:35.162Z,100.00
2024-02-20T18:19:03.420Z,100.00
2024-02-20T18:21:31.250Z,100.00
2024-02-20T18:23:59.135Z,100.00
2024-02-20T18:26:28.432Z,100.00
2024-02-20T18:28:58.091Z,100.00
2024-02-20T18:31:26.533Z,100.00
2024-02-20T18:33:54.379Z,100.00
2024-02-20T18:36:22.358Z,100.00
2024-02-20T18:38:50.252Z,100.00
2024-02-20T18:41:18.960Z,100.00
2024-02-20T18:43:47.067Z,100.00
2024-02-20T18:46:16.415Z,100.00
2024-02-20T18:48:44.445Z,100.00
2024-02-20T18:51:12.361Z,100.00
2024-02-20T18:53:40.922Z,100.00
2024-02-20T18:56:08.783Z,100.00
2024-02-20T18:58:36.661Z,100.00
2024-02-20T19:01:04.807Z,100.00
2024-02-20T19:03:34.141Z,100.00
2024-02-20T19:06:02.044Z,100.00
2024-02-20T19:08:34.517Z,100.00
2024-02-20T19:11:02.722Z,100.00
2024-02-20T19:13:30.898Z,100.00
2024-02-20T19:15:58.737Z,100.00
2024-02-20T19:18:26.672Z,100.00
2024-02-20T19:20:55.902Z,100.00
2024-02-20T19:23:23.968Z,100.00
2024-02-20T19:25:51.956Z,100.00
2024-02-20T19:28:20.005Z,100.00
2024-02-20T19:30:47.997Z,100.00
2024-02-20T19:33:16.037Z,100.00
2024-02-20T19:35:43.973Z,100.00
2024-02-20T19:38:16.891Z,100.00
2024-02-20T19:40:46.410Z,100.00
2024-02-20T19:43:14.328Z,100.00
2024-02-20T19:45:42.215Z,100.00
2024-02-20T19:48:10.402Z,100.00
2024-02-20T19:50:38.236Z,100.00
2024-02-20T19:53:06.084Z,100.00
2024-02-20T19:55:35.309Z,100.00
2024-02-20T19:58:03.148Z,100.00
2024-02-20T20:00:31.137Z,100.00
2024-02-20T20:02:59.061Z,100.00
2024-02-20T20:05:26.986Z,100.00
2024-02-20T20:07:55.104Z,100.00
2024-02-20T20:10:23.086Z,100.00
2024-02-20T20:12:52.457Z,100.00
2024-02-20T20:15:21.371Z,100.00
2024-02-20T20:17:49.343Z,100.00
2024-02-20T20:20:17.586Z,100.00
2024-02-20T20:22:45.527Z,100.00
2024-02-20T20:25:13.606Z,100.00
2024-02-20T20:27:41.525Z,100.00
2024-02-20T20:30:11.990Z,100.00
2024-02-20T20:32:39.833Z,100.00
2024-02-20T20:35:08.658Z,100.00
2024-02-20T20:37:36.626Z,100.00
2024-02-20T20:40:08.503Z,100.00
2024-02-20T20:42:36.726Z,100.00
2024-02-20T20:45:04.945Z,100.00
2024-02-20T20:47:34.233Z,100.00
2024-02-20T20:50:02.218Z,100.00
2024-02-20T20:52:30.253Z,100.00
2024-02-20T20:54:58.247Z,100.00
2024-02-20T20:57:26.380Z,100.00
2024-02-20T20:59:54.235Z,100.00
2024-02-20T21:02:22.168Z,100.00
2024-02-20T21:04:51.676Z,100.00
2024-02-20T21:07:19.722Z,100.00
2024-02-20T21:09:47.641Z,100.00
2024-02-20T21:12:15.556Z,100.00
2024-02-20T21:14:43.403Z,100.00
2024-02-20T21:17:11.292Z,100.00
2024-02-20T21:19:39.757Z,100.00
2024-02-20T21:22:09.062Z,100.00
2024-02-20T21:24:36.985Z,100.00
2024-02-20T21:27:05.831Z,100.00
2024-02-20T21:29:34.497Z,100.00
2024-02-20T21:32:03.043Z,100.00
2024-02-20T21:34:31.039Z,100.00
2024-02-20T21:36:58.938Z,100.00
2024-02-20T21:39:28.141Z,100.00
2024-02-20T21:42:00.163Z,100.00
2024-02-20T21:44:35.264Z,100.00
2024-02-20T21:47:04.329Z,100.00
2024-02-20T21:49:32.291Z,100.00
2024-02-20T21:52:00.207Z,100.00
2024-02-20T21:54:29.374Z,100.00
2024-02-20T21:56:57.319Z,100.00
2024-02-20T21:59:25.202Z,100.00
2024-02-20T22:01:53.157Z,100.00
2024-02-20T22:04:21.172Z,100.00
2024-02-20T22:06:49.205Z,100.00
2024-02-20T22:09:17.062Z,100.00
2024-02-20T22:11:46.387Z,100.00
2024-02-20T22:14:14.926Z,100.00
2024-02-20T22:16:42.825Z,100.00
2024-02-20T22:19:11.014Z,100.00
2024-02-20T22:21:38.990Z,100.00
2024-02-20T22:24:07.367Z,100.00
2024-02-20T22:26:36.333Z,100.00
2024-02-20T22:29:05.599Z,100.00
2024-02-20T22:31:34.008Z,100.00
2024-02-20T22:34:01.964Z,100.00
2024-02-20T22:36:29.817Z,100.00
2024-02-20T22:38:57.640Z,100.00
2024-02-20T22:41:27.940Z,100.00
2024-02-20T22:43:56.122Z,100.00
2024-02-20T22:46:25.466Z,100.00
2024-02-20T22:48:53.433Z,100.00
2024-02-20T22:51:21.269Z,100.00
2024-02-20T22:53:49.122Z,100.00
2024-02-20T22:56:17.001Z,100.00
2024-02-20T22:58:44.896Z,100.00
2024-02-20T23:01:12.885Z,100.00
2024-02-20T23:03:42.188Z,100.00
2024-02-20T23:06:10.134Z,100.00
2024-02-20T23:08:38.088Z,100.00
2024-02-20T23:11:06.125Z,100.00
2024-02-20T23:13:34.267Z,100.00
2024-02-20T23:16:02.222Z,100.00
2024-02-20T23:18:30.109Z,100.00
2024-02-20T23:20:59.283Z,100.00
2024-02-20T23:23:27.109Z,100.00
2024-02-20T23:25:55.086Z,100.00
2024-02-20T23:28:23.897Z,100.00
2024-02-20T23:30:51.754Z,100.00
2024-02-20T23:33:19.665Z,100.00
2024-02-20T23:35:47.561Z,100.00
2024-02-20T23:38:17.320Z,100.00
2024-02-20T23:40:45.412Z,100.00
2024-02-20T23:43:13.282Z,100.00
2024-02-20T23:45:41.327Z,100.00
2024-02-20T23:48:09.427Z,100.00
2024-02-20T23:50:37.349Z,100.00
2024-02-20T23:53:05.438Z,100.00
2024-02-20T23:55:35.004Z,100.00
2024-02-20T23:58:02.900Z,100.00
